Time;durP1;ratioP1;P1;durP2;ratioP2;P2;SDS_P1;SDS_P2;PMS_P1;PMS_P2;Temp;Humidity;BMP_temperature;BMP_pressure;BME280_temperature;BME280_humidity;BME280_pressure;Samples;Min_cycle;Max_cycle;Signal;HPM_P1;HPM_P2
2023/09/12 00:01:19;;;;;;;25.60;21.60;;;;;;;16.73;100.00;98823.70;272893;1270;23169;-89
2023/09/12 00:07:21;;;;;;;25.00;21.30;;;;;;;16.64;100.00;98819.73;273029;1272;23377;-88
2023/09/12 00:13:23;;;;;;;27.60;19.90;;;;;;;16.53;100.00;98822.83;273099;1272;22964;-88
2023/09/12 00:19:24;;;;;;;27.80;20.70;;;;;;;16.44;100.00;98817.98;272927;1273;22327;-89
2023/09/12 00:25:26;;;;;;;25.00;19.50;;;;;;;16.35;100.00;98819.20;273030;1270;22321;-88
2023/09/12 00:31:28;;;;;;;24.80;20.60;;;;;;;16.29;100.00;98823.71;273062;1270;22298;-88
2023/09/12 00:37:29;;;;;;;28.30;20.20;;;;;;;16.21;100.00;98824.70;272933;1273;22839;-89
2023/09/12 00:43:31;;;;;;;25.40;20.40;;;;;;;16.12;100.00;98824.67;272960;1273;22386;-88
2023/09/12 00:49:33;;;;;;;24.30;19.90;;;;;;;16.00;100.00;98830.59;272780;1272;22385;-88
2023/09/12 00:55:36;;;;;;;25.70;21.40;;;;;;;15.97;100.00;98830.47;273014;1272;23091;-87
2023/09/12 01:01:38;;;;;;;29.20;21.50;;;;;;;15.97;100.00;98822.58;272951;1270;23703;-88
2023/09/12 01:07:41;;;;;;;28.80;22.20;;;;;;;15.98;100.00;98818.32;273030;1270;22287;-88
2023/09/12 01:13:44;;;;;;;24.60;20.00;;;;;;;15.96;100.00;98812.34;272886;1272;22199;-87
2023/09/12 01:19:48;;;;;;;24.70;19.30;;;;;;;15.92;100.00;98807.20;272945;1265;23603;-88
2023/09/12 01:26:11;;;;;;;23.80;18.50;;;;;;;15.89;100.00;98804.39;273060;1271;22797;-87
2023/09/12 01:32:14;;;;;;;22.90;18.50;;;;;;;15.82;100.00;98809.45;270156;1272;22354;-88
2023/09/12 01:38:16;;;;;;;21.10;18.10;;;;;;;15.79;100.00;98810.67;270152;1270;22258;-88
2023/09/12 01:44:18;;;;;;;23.00;18.90;;;;;;;15.78;100.00;98814.55;270573;1272;22564;-88
2023/09/12 01:50:20;;;;;;;23.70;19.30;;;;;;;15.75;100.00;98814.02;272635;1272;25330;-88
2023/09/12 01:56:23;;;;;;;21.40;17.30;;;;;;;15.72;100.00;98811.95;272038;1272;22546;-87
2023/09/12 02:02:28;;;;;;;17.80;15.80;;;;;;;15.67;100.00;98814.36;272365;1271;23113;-88
2023/09/12 02:08:31;;;;;;;23.80;15.50;;;;;;;15.60;100.00;98813.98;273119;1278;22202;-88
2023/09/12 02:14:52;;;;;;;26.20;17.80;;;;;;;15.53;100.00;98814.77;273289;1278;22222;-87
2023/09/12 02:20:55;;;;;;;22.50;18.40;;;;;;;15.48;100.00;98816.16;270553;1270;22567;-87
2023/09/12 02:26:57;;;;;;;21.20;17.60;;;;;;;15.44;100.00;98815.42;270948;1270;22554;-88
2023/09/12 02:33:02;;;;;;;24.70;19.20;;;;;;;15.43;100.00;98812.67;270417;1270;22325;-88
2023/09/12 02:39:05;;;;;;;21.80;17.90;;;;;;;15.37;100.00;98814.38;270416;1270;23024;-88
2023/09/12 02:45:08;;;;;;;20.90;17.70;;;;;;;15.30;100.00;98815.25;269946;1270;22117;-87
2023/09/12 02:51:10;;;;;;;23.10;17.50;;;;;;;15.25;100.00;98815.13;273198;1271;22256;-88
2023/09/12 02:57:13;;;;;;;23.50;18.10;;;;;;;15.19;100.00;98816.38;272788;1270;22401;-88
2023/09/12 03:03:24;;;;;;;22.70;18.00;;;;;;;15.15;100.00;98817.37;273210;1270;22190;-88
2023/09/12 03:09:26;;;;;;;22.70;17.50;;;;;;;15.12;100.00;98815.41;273042;1270;22433;-88
2023/09/12 03:15:50;;;;;;;22.20;16.70;;;;;;;15.06;100.00;98815.17;271403;1270;22620;-87
2023/09/12 03:21:52;;;;;;;21.40;19.00;;;;;;;15.02;100.00;98816.08;270041;1270;22549;-87
2023/09/12 03:27:54;;;;;;;20.50;16.40;;;;;;;15.00;100.00;98815.14;269793;1271;22565;-87
2023/09/12 03:33:56;;;;;;;23.00;17.70;;;;;;;14.90;100.00;98818.94;272604;1270;22228;-87
2023/09/12 03:40:41;;;;;;;18.00;15.00;;;;;;;14.82;100.00;98822.55;272886;1270;22319;-88
2023/09/12 03:47:23;;;;;;;18.20;15.40;;;;;;;14.85;100.00;98826.70;273267;1270;22199;-87
2023/09/12 03:53:26;;;;;;;21.40;16.50;;;;;;;14.89;100.00;98829.66;272735;1270;22300;-87
2023/09/12 03:59:48;;;;;;;22.00;17.20;;;;;;;14.86;100.00;98830.30;273008;1270;22938;-87
2023/09/12 04:05:51;;;;;;;21.80;16.80;;;;;;;14.82;100.00;98829.55;272962;1267;22355;-87
2023/09/12 04:11:53;;;;;;;20.60;16.20;;;;;;;14.77;100.00;98828.75;273092;1270;22239;-88
2023/09/12 04:17:55;;;;;;;18.00;14.20;;;;;;;14.73;100.00;98831.67;272992;1270;22407;-87
2023/09/12 04:23:57;;;;;;;21.80;17.50;;;;;;;14.76;100.00;98833.63;272916;1270;23053;-86
2023/09/12 04:29:59;;;;;;;18.10;15.20;;;;;;;14.73;100.00;98836.73;272940;1270;22200;-87
2023/09/12 04:36:02;;;;;;;21.70;16.40;;;;;;;14.72;100.00;98838.77;273241;1257;22253;-87
2023/09/12 04:42:04;;;;;;;20.60;17.30;;;;;;;14.71;100.00;98840.29;273173;1270;22347;-88
2023/09/12 04:48:06;;;;;;;21.10;17.80;;;;;;;14.65;100.00;98840.41;273023;1270;22212;-86
2023/09/12 04:54:08;;;;;;;20.60;16.30;;;;;;;14.69;100.00;98840.05;273070;1270;22322;-87
2023/09/12 05:00:11;;;;;;;22.20;17.20;;;;;;;14.72;100.00;98837.73;272707;1264;22303;-87
2023/09/12 05:06:13;;;;;;;18.50;15.90;;;;;;;14.79;100.00;98839.73;272082;1270;23520;-87
2023/09/12 05:12:15;;;;;;;24.50;17.10;;;;;;;14.88;100.00;98846.28;272894;1272;22294;-87
2023/09/12 05:18:17;;;;;;;18.00;15.50;;;;;;;14.99;100.00;98848.86;271143;1270;23792;-87
2023/09/12 05:24:19;;;;;;;22.00;16.40;;;;;;;15.15;100.00;98848.71;271620;1272;22186;-87
2023/09/12 05:30:31;;;;;;;30.00;19.40;;;;;;;15.34;100.00;98850.51;272937;1274;24162;-88
2023/09/12 05:36:53;;;;;;;24.40;19.00;;;;;;;15.65;100.00;98848.45;272754;1273;22185;-87
2023/09/12 05:42:55;;;;;;;26.60;18.40;;;;;;;16.04;100.00;98851.84;273023;1271;24093;-87
2023/09/12 05:48:57;;;;;;;22.40;17.30;;;;;;;16.44;100.00;98855.48;272697;1263;23459;-88
2023/09/12 05:54:59;;;;;;;22.20;16.60;;;;;;;16.79;100.00;98859.16;273095;1267;23348;-87
2023/09/12 06:01:06;;;;;;;19.30;15.40;;;;;;;16.94;100.00;98858.42;272981;1271;22396;-87
2023/09/12 06:07:08;;;;;;;21.60;16.60;;;;;;;17.18;100.00;98853.66;273107;1263;22406;-87
2023/09/12 06:13:10;;;;;;;20.70;15.00;;;;;;;17.46;100.00;98851.91;273061;1270;22184;-87
2023/09/12 06:19:14;;;;;;;19.40;16.20;;;;;;;17.82;100.00;98853.89;272775;1270;23221;-87
2023/09/12 06:25:19;;;;;;;18.20;15.10;;;;;;;18.16;100.00;98860.39;273264;1270;22918;-87
2023/09/12 06:31:20;;;;;;;19.80;14.00;;;;;;;18.46;100.00;98864.98;273127;1270;22404;-87
2023/09/12 06:37:22;;;;;;;22.00;14.80;;;;;;;18.62;100.00;98873.95;273302;1270;22363;-87
2023/09/12 06:43:25;;;;;;;15.80;13.40;;;;;;;18.75;100.00;98869.77;273190;1270;22234;-87
2023/09/12 06:49:29;;;;;;;15.80;13.20;;;;;;;18.97;100.00;98872.56;273228;1270;22264;-87
2023/09/12 06:55:30;;;;;;;16.70;12.40;;;;;;;19.22;100.00;98876.23;273251;1270;22394;-86
2023/09/12 07:01:32;;;;;;;16.10;12.20;;;;;;;19.38;100.00;98878.27;271746;1270;22534;-88
2023/09/12 07:07:34;;;;;;;18.40;12.40;;;;;;;19.55;100.00;98880.38;272297;1270;22329;-87
2023/09/12 07:13:35;;;;;;;14.40;12.40;;;;;;;19.71;100.00;98883.74;273199;1271;22202;-88
2023/09/12 07:19:37;;;;;;;13.80;12.30;;;;;;;19.89;100.00;98881.18;273499;1267;22407;-88
2023/09/12 07:25:40;;;;;;;17.20;11.40;;;;;;;20.04;100.00;98882.34;273469;1272;23082;-87
2023/09/12 07:31:42;;;;;;;13.30;11.70;;;;;;;20.21;100.00;98882.03;273351;1270;22260;-88
2023/09/12 07:37:43;;;;;;;13.70;11.80;;;;;;;20.40;100.00;98876.55;273493;1276;22342;-88
2023/09/12 07:43:51;;;;;;;16.60;11.80;;;;;;;20.66;100.00;98873.05;273405;1270;22204;-88
2023/09/12 07:49:54;;;;;;;11.40;10.10;;;;;;;21.05;100.00;98872.83;272805;1274;23775;-88
2023/09/12 07:55:59;;;;;;;16.40;10.80;;;;;;;21.49;100.00;98875.56;270809;1259;22286;-88
2023/09/12 08:02:01;;;;;;;11.70;10.50;;;;;;;21.80;100.00;98874.69;273467;1270;22842;-88
2023/09/12 08:08:03;;;;;;;15.40;9.70;;;;;;;22.22;100.00;98877.05;273368;1264;22315;-87
2023/09/12 08:14:46;;;;;;;13.50;10.30;;;;;;;22.60;100.00;98876.48;273143;1271;22211;-88
2023/09/12 08:20:48;;;;;;;11.10;9.30;;;;;;;22.85;100.00;98872.92;272809;1270;23794;-88
2023/09/12 08:26:50;;;;;;;13.70;10.50;;;;;;;23.07;100.00;98880.56;272099;1270;22192;-88
2023/09/12 08:32:51;;;;;;;13.30;9.60;;;;;;;23.37;100.00;98877.83;273216;1270;22306;-89
2023/09/12 08:38:53;;;;;;;13.10;9.90;;;;;;;23.62;100.00;98879.41;271487;1270;22547;-88
2023/09/12 08:45:16;;;;;;;11.60;10.40;;;;;;;23.80;100.00;98877.34;272913;1270;22215;-88
2023/09/12 08:51:18;;;;;;;9.90;8.90;;;;;;;24.24;100.00;98876.15;273276;1270;22294;-88
2023/09/12 08:57:21;;;;;;;14.80;9.50;;;;;;;24.68;100.00;98873.84;273172;1270;22174;-88
2023/09/12 09:03:24;;;;;;;14.80;8.80;;;;;;;25.16;100.00;98870.39;270091;1270;22543;-89
2023/09/12 09:09:26;;;;;;;12.20;9.00;;;;;;;25.74;98.50;98869.49;270392;1272;22295;-88
2023/09/12 09:15:30;;;;;;;9.70;7.90;;;;;;;26.46;97.43;98863.64;272616;1266;22223;-89
2023/09/12 09:21:33;;;;;;;10.10;7.90;;;;;;;27.36;94.37;98867.47;272962;1270;22386;-88
2023/09/12 09:27:34;;;;;;;11.20;8.10;;;;;;;27.96;91.41;98866.35;272043;1270;22473;-87
2023/09/12 09:33:37;;;;;;;10.30;7.50;;;;;;;28.49;88.04;98858.60;270179;1263;22338;-89
2023/09/12 09:39:38;;;;;;;9.80;7.70;;;;;;;29.02;85.57;98853.65;269651;1263;23838;-88
2023/09/12 09:45:45;;;;;;;7.60;6.30;;;;;;;29.73;82.84;98851.52;273013;1270;22323;-88
2023/09/12 09:51:47;;;;;;;7.90;7.10;;;;;;;30.43;80.42;98852.20;272986;1270;22388;-88
2023/09/12 09:57:52;;;;;;;8.60;6.30;;;;;;;30.77;77.26;98842.91;273087;1272;23684;-87
2023/09/12 10:04:01;;;;;;;6.60;6.00;;;;;;;31.41;75.60;98830.85;272879;1270;22301;-88
2023/09/12 10:10:05;;;;;;;6.90;6.20;;;;;;;32.03;73.25;98826.94;272953;1270;22294;-87
2023/09/12 10:16:07;;;;;;;9.90;6.40;;;;;;;32.34;70.30;98828.70;272294;1270;24083;-87
2023/09/12 10:22:13;;;;;;;7.90;6.30;;;;;;;32.70;66.98;98827.27;271164;1265;22654;-89
2023/09/12 10:28:15;;;;;;;8.70;6.20;;;;;;;32.89;63.75;98826.48;270713;1270;23176;-89
2023/09/12 10:34:18;;;;;;;6.90;6.20;;;;;;;32.92;60.63;98824.77;272164;1270;22465;-87
2023/09/12 10:40:20;;;;;;;8.60;5.70;;;;;;;32.76;57.75;98820.42;272913;1270;22319;-89
2023/09/12 10:46:23;;;;;;;8.40;5.80;;;;;;;32.83;57.46;98820.92;272128;1272;23061;-88
2023/09/12 10:52:28;;;;;;;5.90;5.30;;;;;;;33.05;56.80;98815.56;270644;1270;22992;-88
2023/09/12 10:58:31;;;;;;;6.60;5.50;;;;;;;33.18;55.38;98815.83;272969;1271;22457;-88
2023/09/12 11:04:34;;;;;;;6.90;5.30;;;;;;;33.14;54.63;98811.45;272462;1270;23444;-89
2023/09/12 11:10:50;;;;;;;6.20;5.60;;;;;;;32.70;54.28;98808.23;272040;1270;23192;-86
2023/09/12 11:17:24;;;;;;;6.60;5.70;;;;;;;32.70;54.26;98812.23;270191;1274;1571499;-88
2023/09/12 11:23:54;;;;;;;6.80;5.90;;;;;;;32.41;53.31;98809.28;272182;1275;22406;-88
2023/09/12 11:30:22;;;;;;;6.40;5.30;;;;;;;31.86;52.86;98805.11;272304;1274;22263;-89
2023/09/12 11:37:05;;;;;;;7.60;5.40;;;;;;;31.30;52.49;98801.86;271497;1274;22253;-89
2023/09/12 11:43:40;;;;;;;;;;;;;;;;;;;;;
2023/09/12 11:50:05;;;;;;;7.80;6.00;;;;;;;30.59;53.56;98789.60;270757;1268;22491;-88
2023/09/12 11:56:30;;;;;;;8.60;5.90;;;;;;;30.17;53.55;98794.12;271688;1268;23139;-86
2023/09/12 12:02:32;;;;;;;6.70;5.50;;;;;;;29.92;53.95;98793.41;270742;1271;22616;-87
2023/09/12 12:08:34;;;;;;;9.00;6.10;;;;;;;29.53;53.44;98791.80;269997;1270;22552;-88
2023/09/12 12:14:38;;;;;;;7.20;6.20;;;;;;;29.12;53.33;98790.90;270986;1270;25062;-88
2023/09/12 12:20:40;;;;;;;13.60;6.30;;;;;;;29.08;54.04;98790.89;269497;1270;22567;-89
2023/09/12 12:26:45;;;;;;;7.70;5.50;;;;;;;28.94;53.78;98788.67;269316;1267;22525;-87
2023/09/12 12:32:47;;;;;;;9.40;5.80;;;;;;;28.72;54.24;98785.77;270113;1272;23453;-89
2023/09/12 12:38:50;;;;;;;7.50;6.10;;;;;;;28.57;54.17;98779.64;269835;1270;22338;-89
2023/09/12 12:44:54;;;;;;;7.40;6.00;;;;;;;28.46;55.05;98770.89;273023;1270;22408;-88
2023/09/12 12:50:56;;;;;;;7.50;6.60;;;;;;;28.46;54.53;98770.11;272760;1271;22634;-88
2023/09/12 12:56:59;;;;;;;8.30;6.30;;;;;;;28.41;54.90;98764.64;271821;1272;22220;-88
2023/09/12 13:03:01;;;;;;;8.00;6.30;;;;;;;28.23;55.57;98768.13;272883;1271;22380;-88
2023/09/12 13:09:05;;;;;;;8.50;6.70;;;;;;;28.13;56.09;98765.44;273124;1271;22191;-88
2023/09/12 13:15:07;;;;;;;9.10;7.00;;;;;;;28.04;56.77;98763.02;272906;1270;22126;-89
2023/09/12 13:21:09;;;;;;;10.20;6.50;;;;;;;27.97;57.11;98765.61;273068;1270;22307;-88
2023/09/12 13:27:11;;;;;;;8.40;6.60;;;;;;;27.92;57.43;98767.45;273099;1270;22377;-86
2023/09/12 13:33:15;;;;;;;9.50;6.50;;;;;;;27.77;56.95;98765.64;272980;1270;22412;-88
2023/09/12 13:39:17;;;;;;;11.10;6.90;;;;;;;27.69;56.71;98761.58;273117;1272;22446;-88
2023/09/12 13:45:21;;;;;;;9.00;6.40;;;;;;;27.60;57.12;98761.63;272813;1270;23029;-88
2023/09/12 13:51:24;;;;;;;7.70;6.80;;;;;;;27.48;56.75;98765.17;273118;1271;22963;-88
2023/09/12 13:57:26;;;;;;;8.00;6.50;;;;;;;27.36;56.69;98765.69;272365;1272;22571;-89
2023/09/12 14:03:27;;;;;;;8.00;6.90;;;;;;;27.18;57.16;98763.77;269758;1270;22580;-89
2023/09/12 14:09:29;;;;;;;9.00;7.40;;;;;;;27.00;57.31;98761.80;269730;1272;22568;-88
2023/09/12 14:15:31;;;;;;;9.10;6.90;;;;;;;26.90;57.56;98758.39;269710;1270;22532;-88
2023/09/12 14:21:33;;;;;;;6.90;6.20;;;;;;;26.91;57.09;98758.91;270458;1270;22649;-89
2023/09/12 14:27:35;;;;;;;12.40;7.10;;;;;;;26.92;57.43;98760.92;270552;1271;23093;-89
2023/09/12 14:33:36;;;;;;;9.20;6.90;;;;;;;26.90;58.21;98757.99;273100;1271;22204;-89
2023/09/12 14:39:38;;;;;;;9.30;7.00;;;;;;;26.83;58.42;98751.82;272929;1272;23218;-89
2023/09/12 14:45:40;;;;;;;8.80;6.80;;;;;;;26.71;58.57;98754.85;273028;1271;22233;-89
2023/09/12 14:51:43;;;;;;;10.10;8.30;;;;;;;26.54;59.17;98757.71;273130;1271;22185;-89
2023/09/12 14:57:45;;;;;;;9.20;7.20;;;;;;;26.46;59.77;98765.96;272943;1271;22379;-89
2023/09/12 15:03:47;;;;;;;11.20;7.50;;;;;;;26.37;60.46;98776.93;273196;1272;22274;-89
2023/09/12 15:09:49;;;;;;;12.80;7.20;;;;;;;26.33;60.64;98776.04;273098;1271;22095;-89
2023/09/12 15:15:50;;;;;;;13.50;7.60;;;;;;;26.30;61.09;98769.11;273073;1270;22353;-89
2023/09/12 15:21:52;;;;;;;9.30;7.10;;;;;;;26.27;61.38;98767.95;273130;1268;22419;-90
2023/09/12 15:27:54;;;;;;;10.90;7.80;;;;;;;26.20;61.98;98762.94;273005;1272;22321;-89
2023/09/12 15:33:57;;;;;;;8.80;7.60;;;;;;;26.12;62.18;98765.92;272943;1272;22325;-88
2023/09/12 15:39:58;;;;;;;9.80;7.70;;;;;;;26.04;62.22;98766.14;272975;1272;22446;-88
2023/09/12 15:46:00;;;;;;;11.90;7.20;;;;;;;25.96;62.69;98759.45;273164;1271;22346;-88
2023/09/12 15:52:03;;;;;;;9.10;6.90;;;;;;;25.90;62.68;98758.56;273031;1272;22228;-89
2023/09/12 15:58:05;;;;;;;10.00;6.80;;;;;;;25.81;62.69;98756.58;273068;1270;22201;-89
2023/09/12 16:04:06;;;;;;;8.40;7.60;;;;;;;25.70;62.82;98757.97;272993;1272;22327;-89
2023/09/12 16:10:12;;;;;;;10.40;7.20;;;;;;;25.60;63.17;98760.79;272986;1262;22417;-89
2023/09/12 16:16:14;;;;;;;12.40;8.80;;;;;;;25.51;63.34;98757.19;273076;1275;22390;-89
2023/09/12 16:22:16;;;;;;;12.00;8.60;;;;;;;25.37;63.88;98759.10;273238;1275;22294;-89
2023/09/12 16:28:19;;;;;;;22.80;12.50;;;;;;;25.18;65.94;98758.39;272991;1270;22199;-89
2023/09/12 16:34:28;;;;;;;18.70;10.10;;;;;;;24.97;66.98;98762.31;273084;1270;22322;-88
2023/09/12 16:40:32;;;;;;;12.90;10.20;;;;;;;24.74;68.08;98766.34;272314;1271;22516;-89
2023/09/12 16:46:34;;;;;;;18.60;12.00;;;;;;;24.53;68.91;98762.27;271385;1272;22325;-89
2023/09/12 16:52:35;;;;;;;22.30;14.10;;;;;;;24.31;69.97;98766.64;272409;1269;22649;-91
2023/09/12 16:58:37;;;;;;;23.80;14.20;;;;;;;24.06;71.22;98770.05;271620;1272;22562;-90
2023/09/12 17:04:42;;;;;;;22.50;13.90;;;;;;;23.85;72.55;98771.42;271711;1270;22425;-90
2023/09/12 17:10:43;;;;;;;25.80;13.00;;;;;;;23.66;73.89;98772.23;272986;1269;22328;-89
2023/09/12 17:16:45;;;;;;;16.50;12.10;;;;;;;23.49;74.86;98770.20;273100;1272;22324;-89
2023/09/12 17:22:47;;;;;;;19.90;12.90;;;;;;;23.22;75.75;98774.15;273151;1273;22222;-89
2023/09/12 17:28:49;;;;;;;22.50;13.90;;;;;;;22.96;77.06;98780.85;273078;1272;22356;-89
2023/09/12 17:34:52;;;;;;;24.60;14.00;;;;;;;22.77;78.24;98778.60;273150;1272;22456;-89
2023/09/12 17:40:53;;;;;;;25.40;15.40;;;;;;;22.53;79.58;98780.46;272908;1270;22307;-89
2023/09/12 17:46:55;;;;;;;29.10;15.90;;;;;;;22.35;80.74;98778.97;272942;1272;22330;-86
2023/09/12 17:52:58;;;;;;;31.30;17.20;;;;;;;22.22;81.83;98780.19;272969;1271;23001;-90
2023/09/12 17:59:00;;;;;;;31.60;16.10;;;;;;;22.04;82.60;98781.78;273045;1272;22365;-87
2023/09/12 18:05:02;;;;;;;24.70;16.10;;;;;;;21.85;83.59;98789.04;273012;1272;23153;-87
2023/09/12 18:11:04;;;;;;;25.90;15.60;;;;;;;21.63;84.26;98792.45;273052;1273;22275;-88
2023/09/12 18:17:06;;;;;;;33.30;17.20;;;;;;;21.46;85.23;98795.05;271798;1271;24199;-88
2023/09/12 18:23:08;;;;;;;24.40;15.70;;;;;;;21.27;85.82;98799.87;270897;1275;22584;-88
2023/09/12 18:29:13;;;;;;;26.30;17.50;;;;;;;20.98;86.72;98801.31;270195;1268;22221;-89
2023/09/12 18:35:15;;;;;;;34.10;19.00;;;;;;;20.79;87.70;98805.93;271030;1270;23336;-89
2023/09/12 18:41:18;;;;;;;23.40;17.40;;;;;;;20.67;88.57;98804.97;270535;1269;22542;-89
2023/09/12 18:47:19;;;;;;;23.50;18.40;;;;;;;20.48;89.21;98809.89;272346;1270;23146;-89
2023/09/12 18:53:21;;;;;;;25.40;18.50;;;;;;;20.36;90.40;98807.74;273151;1272;22312;-89
2023/09/12 18:59:23;;;;;;;26.70;17.70;;;;;;;20.27;91.36;98807.84;272886;1270;22403;-89
2023/09/12 19:05:25;;;;;;;26.30;17.10;;;;;;;20.08;91.44;98806.27;273137;1271;22311;-89
2023/09/12 19:11:26;;;;;;;27.00;18.90;;;;;;;19.90;92.30;98809.01;273120;1271;22232;-88
2023/09/12 19:17:29;;;;;;;34.60;19.80;;;;;;;19.83;93.42;98809.21;270818;1270;22554;-87
2023/09/12 19:23:33;;;;;;;32.30;20.60;;;;;;;19.75;94.07;98808.20;269480;1260;25137;-89
2023/09/12 19:29:52;;;;;;;30.20;18.70;;;;;;;19.62;94.53;98805.37;270681;1270;22209;-89
2023/09/12 19:35:53;;;;;;;32.20;21.00;;;;;;;19.43;94.91;98803.07;272862;1270;22187;-88
2023/09/12 19:41:55;;;;;;;30.90;18.50;;;;;;;19.28;95.51;98802.64;273064;1264;23188;-86
2023/09/12 19:47:57;;;;;;;47.50;26.50;;;;;;;19.13;95.95;98804.15;265314;1270;10001631;-88
2023/09/12 19:53:59;;;;;;;45.60;26.80;;;;;;;19.08;97.03;98812.86;272802;1270;23541;-88
2023/09/12 20:00:01;;;;;;;47.70;27.70;;;;;;;19.04;97.85;98814.21;273009;1270;22349;-89
2023/09/12 20:06:05;;;;;;;43.50;29.20;;;;;;;18.99;98.23;98815.77;273009;1270;23158;-88
2023/09/12 20:12:07;;;;;;;63.00;34.80;;;;;;;18.90;98.77;98816.58;273043;1270;22301;-88
2023/09/12 20:18:11;;;;;;;65.30;32.40;;;;;;;18.83;99.38;98822.12;272952;1270;22362;-88
2023/09/12 20:24:13;;;;;;;69.80;34.90;;;;;;;18.71;99.49;98820.20;272850;1270;23719;-88
2023/09/12 20:30:15;;;;;;;63.90;34.20;;;;;;;18.61;99.90;98820.19;272849;1270;22219;-87
2023/09/12 20:36:17;;;;;;;61.60;31.30;;;;;;;18.55;100.00;98820.42;273002;1270;22325;-89
2023/09/12 20:42:19;;;;;;;63.20;33.30;;;;;;;18.53;100.00;98824.27;272935;1270;23223;-88
2023/09/12 20:48:22;;;;;;;53.90;29.50;;;;;;;18.47;100.00;98824.25;272866;1271;22166;-88
2023/09/12 20:54:23;;;;;;;53.90;30.00;;;;;;;18.30;100.00;98823.90;272868;1270;23272;-89
2023/09/12 21:00:25;;;;;;;45.10;27.00;;;;;;;18.23;100.00;98823.91;272942;1270;22328;-88
2023/09/12 21:06:27;;;;;;;45.50;27.50;;;;;;;18.19;100.00;98823.27;273066;1270;22386;-88
2023/09/12 21:12:29;;;;;;;41.70;25.50;;;;;;;18.10;100.00;98821.52;271896;1270;22311;-89
2023/09/12 21:18:46;;;;;;;38.80;24.80;;;;;;;18.02;100.00;98824.60;273072;1270;22318;-89
2023/09/12 21:24:52;;;;;;;39.20;24.80;;;;;;;18.00;100.00;98824.72;272345;1270;21764;-88
2023/09/12 21:30:54;;;;;;;35.10;25.40;;;;;;;17.96;100.00;98829.32;273235;1267;22314;-88
2023/09/12 21:37:14;;;;;;;38.40;26.30;;;;;;;17.87;100.00;98830.45;272738;1270;22577;-89
2023/09/12 21:43:25;;;;;;;54.80;30.00;;;;;;;17.78;100.00;98826.54;270349;1273;22531;-89
2023/09/12 21:49:41;;;;;;;36.70;23.90;;;;;;;17.64;100.00;98828.07;272246;1270;22338;-89
2023/09/12 21:56:05;;;;;;;42.60;24.00;;;;;;;17.56;100.00;98833.30;273282;1270;22262;-88
2023/09/12 22:02:25;;;;;;;44.60;26.50;;;;;;;17.50;100.00;98837.14;273191;1270;22296;-89
2023/09/12 22:08:29;;;;;;;38.50;25.00;;;;;;;17.47;100.00;98839.41;273307;1270;22291;-87
2023/09/12 22:14:31;;;;;;;41.50;28.20;;;;;;;17.42;100.00;98841.86;273097;1270;22407;-88
2023/09/12 22:20:47;;;;;;;33.90;25.70;;;;;;;17.38;100.00;98844.61;273244;1270;22322;-88
2023/09/12 22:27:08;;;;;;;33.30;23.90;;;;;;;17.31;100.00;98849.09;273159;1262;22334;-89
2023/09/12 22:33:50;;;;;;;40.70;24.70;;;;;;;17.16;100.00;98847.29;273324;1275;22187;-88
2023/09/12 22:40:35;;;;;;;36.10;24.30;;;;;;;17.08;100.00;98846.16;273438;1270;22174;-89
2023/09/12 22:46:57;;;;;;;42.20;25.10;;;;;;;17.00;100.00;98841.64;273045;1270;22950;-89
2023/09/12 22:53:19;;;;;;;38.60;25.80;;;;;;;16.94;100.00;98839.29;273409;1278;22220;-88
2023/09/12 22:59:53;;;;;;;40.60;26.10;;;;;;;16.85;100.00;98830.52;273301;1270;22224;-88
2023/09/12 23:06:23;;;;;;;32.30;22.20;;;;;;;16.77;100.00;98820.77;273376;1270;22198;-89
2023/09/12 23:12:25;;;;;;;26.20;22.30;;;;;;;16.73;100.00;98818.95;273404;1270;22276;-89
2023/09/12 23:18:26;;;;;;;23.70;19.40;;;;;;;16.69;100.00;98818.23;270121;1270;144717;-88
2023/09/12 23:24:49;;;;;;;29.70;22.60;;;;;;;16.63;100.00;98812.90;272744;1270;23472;-88
2023/09/12 23:30:53;;;;;;;36.00;22.30;;;;;;;16.51;100.00;98804.23;272812;1270;23763;-88
2023/09/12 23:36:56;;;;;;;26.80;20.90;;;;;;;16.46;100.00;98802.56;273361;1270;22224;-88
2023/09/12 23:43:38;;;;;;;32.80;21.30;;;;;;;16.50;100.00;98803.39;273329;1268;23044;-88
2023/09/12 23:49:54;;;;;;;25.60;19.30;;;;;;;16.47;100.00;98800.27;273139;1270;22319;-88
2023/09/12 23:55:59;;;;;;;29.60;22.30;;;;;;;16.47;100.00;98796.56;273609;1272;22209;-88
